• Join FlightAware (Why Join?)
  • Login
  • US Flag 
09:28AM EDT


 

Airport Tracker/Info


-or-


 

Live Flight TrackerFlight Track Log ✈ VH-CZH ✈ 02-Jul-2013 ✈ YPJT / JAD - YPJT / JAD

Flight Track Log - Related Links

Times and Time Zones

All times are in EDT time to prevent confusion due to time zone crossing. See the VH-CZH flight status page for this flight to view local times or setup timezone preferences in your user account.

Time Position Orientation Groundspeed Altitude Reporting Facility
EDT Latitude Longitude Course Direction KTS MPH feet Rate Location/Type
02:47AM -32.1036 115.8681 286° West 95 109 400  Level Aus ATC (RADAR)
02:48AM -32.0984 115.8463 286° West 99 114 1,300 900 Climbing Aus ATC (RADAR)
02:49AM -32.0819 115.8399 342° North 105 121 1,700 660 Climbing Aus ATC (RADAR)
02:50AM -32.0627 115.8233 324° Northwest 104 120 2,300 480 Climbing Aus ATC (RADAR)
02:50AM -32.0463 115.8020 312° West 117 135 2,500 60 Climbing Aus ATC (RADAR)
02:51AM -32.0275 115.7737 308° West 113 130 2,400 300 Descending Aus ATC (RADAR)
02:52AM -32.0156 115.7544 306° West 107 123 3,000 840 Climbing Aus ATC (RADAR)
02:53AM -32.0019 115.7334 308° West 107 123 3,600 240 Climbing Aus ATC (RADAR)
02:54AM -31.9788 115.7082 317° Northwest 120 138 3,500 -60 Descending Aus ATC (RADAR)
02:55AM -31.9529 115.7093 North 125 144 3,500  Level Aus ATC (RADAR)
02:55AM -31.9211 115.7097 North 122 140 3,500  Level Aus ATC (RADAR)
02:56AM -31.8980 115.7107 North 124 143 3,500 -120 Level Aus ATC (RADAR)
02:57AM -31.8813 115.7221 30° Northeast 127 146 3,400 -120 Descending Aus ATC (RADAR)
02:57AM -31.8954 115.7436 128° Southeast 124 143 3,400  Level Aus ATC (RADAR)
02:58AM -31.8918 115.7174 279° West 115 132 3,500 60 Climbing Aus ATC (RADAR)
02:59AM -31.8816 115.7399 62° Northeast 121 139 3,500  Level Aus ATC (RADAR)
03:00AM -31.8996 115.7455 165° South 123 142 3,500  Level Aus ATC (RADAR)
03:01AM -31.8852 115.7280 314° West 125 144 3,500  Level Aus ATC (RADAR)
03:02AM -31.8866 115.7607 93° East 123 142 3,500 -180 Level Aus ATC (RADAR)
03:02AM -31.8866 115.7925 90° East 132 152 3,300 -420 Descending Aus ATC (RADAR)
03:03AM -31.8849 115.8179 86° East 131 151 3,000 -600 Descending Aus ATC (RADAR)
03:03AM -31.8834 115.8465 87° East 128 147 2,600 -600 Descending Aus ATC (RADAR)
03:04AM -31.8712 115.8609 45° Northeast 134 154 2,300 -120 Descending Aus ATC (RADAR)
03:05AM -31.8492 115.8643 North 120 138 2,500 60 Climbing Aus ATC (RADAR)
03:06AM -31.8137 115.8747 14° North 123 142 2,500  Level Aus ATC (RADAR)
03:07AM -31.7987 115.9122 65° Northeast 123 142 2,500 -60 Level Aus ATC (RADAR)
03:07AM -31.7921 115.9432 76° East 127 146 2,400 -120 Descending Aus ATC (RADAR)
03:08AM -31.7913 115.9675 88° East 124 143 2,400  Level Aus ATC (RADAR)
03:09AM -31.7961 115.9902 104° East 118 136 2,400  Level Aus ATC (RADAR)
03:09AM -31.8088 116.0026 140° Southeast 105 121 2,400 -360 Level Aus ATC (RADAR)
03:10AM -31.8255 115.9995 189° South 104 120 2,000 -600 Descending Aus ATC (RADAR)
03:10AM -31.8421 115.9942 195° South 107 123 1,700 -600 Descending Aus ATC (RADAR)
03:11AM -31.8608 115.9881 195° South 106 122 1,300 -480 Descending Aus ATC (RADAR)
03:12AM -31.8774 115.9838 192° South 105 121 1,100 -540 Descending Aus ATC (RADAR)
03:12AM -31.8992 115.9771 195° South 106 122 600 -240 Descending Aus ATC (RADAR)
03:13AM -31.9271 115.9727 188° South 101 116 700 240 Climbing Aus ATC (RADAR)
03:14AM -31.9229 115.9983 79° East 121 139 1,100 660 Climbing Aus ATC (RADAR)
03:15AM -31.9104 116.0178 53° Northeast 123 142 1,600 600 Climbing Aus ATC (RADAR)
03:16AM -31.8768 116.0743 55° Northeast 137 158 2,500 300 Climbing Aus ATC (RADAR)
03:17AM -31.8583 116.1044 54° Northeast 135 155 2,400 -120 Descending Aus ATC (RADAR)
03:18AM -31.8430 116.1302 55° Northeast 125 144 2,400  Level Aus ATC (RADAR)
03:19AM -31.8312 116.1484 53° Northeast 119 137 2,400 60 Level Aus ATC (RADAR)
03:19AM -31.8111 116.1717 45° Northeast 123 142 2,500 60 Climbing Aus ATC (RADAR)
03:21AM -31.7942 116.2282 71° East 122 140 2,600 -60 Climbing Aus ATC (RADAR)
03:22AM -31.7747 116.2180 336° Northwest 121 139 2,400 -120 Descending Aus ATC (RADAR)
03:23AM -31.7936 116.2003 219° Southwest 110 127 2,500 60 Climbing Aus ATC (RADAR)
03:23AM -31.8055 116.1837 230° Southwest 110 127 2,500  Level Aus ATC (RADAR)
03:24AM -31.8203 116.1632 229° Southwest 109 125 2,500 -60 Level Aus ATC (RADAR)
03:25AM -31.8381 116.1332 235° Southwest 111 128 2,400 -60 Descending Aus ATC (RADAR)
03:26AM -31.8495 116.1113 238° Southwest 90 104 2,400  Level Aus ATC (RADAR)
03:27AM -31.8622 116.0883 237° Southwest 84 97 2,400 -120 Level Aus ATC (RADAR)
03:28AM -31.8714 116.0746 232° Southwest 90 104 2,200 -540 Descending Aus ATC (RADAR)
03:28AM -31.8831 116.0606 226° Southwest 101 116 1,800 -660 Descending Aus ATC (RADAR)
03:29AM -31.8943 116.0399 237° Southwest 96 110 1,300 -600 Descending Aus ATC (RADAR)
03:30AM -31.9095 116.0156 234° Southwest 97 112 800 -180 Descending Aus ATC (RADAR)
03:31AM -31.9366 115.9889 220° Southwest 97 112 1,000 300 Climbing Aus ATC (RADAR)
03:32AM -31.9406 116.0166 100° East 116 133 1,600 840 Climbing Aus ATC (RADAR)
03:33AM -31.9415 116.0489 92° East 113 130 2,400 900 Climbing Aus ATC (RADAR)
03:34AM -31.9421 116.0676 92° East 111 128 2,900 480 Climbing Aus ATC (RADAR)
03:34AM -31.9228 116.0840 36° Northeast 133 153 3,000 540 Climbing Aus ATC (RADAR)
03:35AM -31.9059 116.1077 50° Northeast 128 147 3,700 780 Climbing Aus ATC (RADAR)
03:36AM -31.8888 116.1508 65° Northeast 130 150 4,500 600 Climbing Aus ATC (RADAR)
03:37AM -31.8747 116.1879 66° East 136 157 4,900 360 Climbing Aus ATC (RADAR)
03:38AM -31.8618 116.2175 63° Northeast 149 171 5,100 60 Climbing Aus ATC (RADAR)
03:38AM -31.8455 116.2536 62° Northeast 164 189 5,000 -120 Descending Aus ATC (RADAR)
03:40AM -31.8091 116.3223 58° Northeast 165 190 4,900  Descending Aus ATC (RADAR)
03:41AM -31.7691 116.3977 58° Northeast 166 191 5,000  Climbing Aus ATC (RADAR)
03:42AM -31.7518 116.4421 65° Northeast 164 189 4,900  Descending Aus ATC (RADAR)
03:43AM -31.7378 116.4737 62° Northeast 162 186 5,000 60 Climbing Aus ATC (RADAR)
03:44AM -31.7223 116.5040 59° Northeast 162 186 5,000  Level Aus ATC (RADAR)
03:45AM -31.6950 116.5437 51° Northeast 169 194 5,000  Level Aus ATC (RADAR)
03:45AM -31.6777 116.5824 62° Northeast 159 183 5,000 -60 Level Aus ATC (RADAR)
03:47AM -31.6650 116.6646 80° East 163 188 4,900  Descending Aus ATC (RADAR)
03:48AM -31.6705 116.7138 98° East 162 186 5,100 60 Climbing Aus ATC (RADAR)
03:49AM -31.6735 116.7545 95° East 163 188 5,000 -120 Descending Aus ATC (RADAR)
03:49AM -31.6670 116.7907 78° East 166 191 5,000  Level Aus ATC (RADAR)
03:50AM -31.6584 116.8356 77° East 164 189 5,000  Level Aus ATC (RADAR)
03:51AM -31.6538 116.8616 78° East 160 184 5,000 -240 Level Aus ATC (RADAR)
03:52AM -31.6475 116.9490 85° East 170 196 4,600 -360 Descending Aus ATC (RADAR)
03:53AM -31.6467 116.9757 88° East 162 186 4,300 -420 Descending Aus ATC (RADAR)
03:54AM -31.6480 117.0318 92° East 152 175 4,000 -240 Descending Aus ATC (RADAR)
03:54AM -31.6490 117.0596 92° East 142 163 4,000 -120 Level Aus ATC (RADAR)
03:55AM -31.6494 117.1022 91° East 139 160 3,900 -60 Descending Aus ATC (RADAR)
03:56AM -31.6416 117.1606 81° East 136 157 3,900  Level Aus ATC (RADAR)
03:57AM -31.6303 117.1990 71° East 132 152 4,000  Climbing Aus ATC (RADAR)
03:58AM -31.6178 117.2383 69° East 115 132 4,000  Level Aus ATC (RADAR)
03:59AM -31.5984 117.2136 313° West 135 155 4,000  Level Aus ATC (RADAR)
04:00AM -31.6084 117.1967 235° Southwest 121 139 4,000  Level Aus ATC (RADAR)
04:00AM -31.6198 117.1716 242° Southwest 114 131 4,000  Level Aus ATC (RADAR)
04:02AM -31.6467 117.1931 146° Southeast 137 158 4,000  Level Aus ATC (RADAR)
04:03AM -31.6256 117.2261 53° Northeast 133 153 4,000  Level Aus ATC (RADAR)
04:04AM -31.6016 117.2098 330° Northwest 131 151 4,000 -240 Level Aus ATC (RADAR)
04:05AM -31.6130 117.1893 237° Southwest 118 136 3,700 -600 Descending Aus ATC (RADAR)
04:05AM -31.6266 117.1644 237° Southwest 118 136 3,200 -600 Descending Aus ATC (RADAR)
04:06AM -31.6418 117.1499 219° Southwest 97 112 2,900 -600 Descending Aus ATC (RADAR)
04:07AM -31.6576 117.1701 133° Southeast 140 161 2,500  Descending Aus ATC (RADAR)
04:09AM -31.6659 117.1464 248° West  Level Estimated
04:16AM -31.6982 117.0533 248° West  Level Estimated
04:16AM -31.6720 117.2212 248° West 136 157 3,300  Level Aus ATC (RADAR)
04:17AM -31.7028 117.0400 248° West  Level Estimated
04:19AM -31.6749 117.1523 12° North 6,000  Level Aus ATC (Calculated)
04:20AM -31.6237 117.1650 248° West 113 130 5,700 -120 Descending Aus ATC (RADAR)
04:21AM -31.6318 117.1254 256° West 132 152 5,900 120 Climbing Aus ATC (RADAR)
04:22AM -31.6380 117.0765 261° West 134 154 6,000  Climbing Aus ATC (RADAR)
04:23AM -31.6403 117.0461 265° West 137 158 5,900  Descending Aus ATC (RADAR)
04:23AM -31.6407 117.0196 269° West 136 157 6,000 120 Climbing Aus ATC (RADAR)
04:24AM -31.6414 116.9815 269° West 137 158 6,100  Climbing Aus ATC (RADAR)
04:25AM -31.6442 116.9315 266° West 140 161 6,000 -240 Descending Aus ATC (RADAR)
04:26AM -31.6456 116.8958 267° West 140 161 5,700 -540 Descending Aus ATC (RADAR)
04:26AM -31.6475 116.8688 265° West 137 158 5,300 -720 Descending Aus ATC (RADAR)
04:27AM -31.6455 116.8215 273° West 139 160 4,600 -660 Descending Aus ATC (RADAR)
04:28AM -31.6522 116.7825 259° West 142 163 4,100 -480 Descending Aus ATC (RADAR)
04:29AM -31.6576 116.7474 260° West 141 162 3,900 -180 Descending Aus ATC (RADAR)
04:30AM -31.6631 116.7203 256° West 143 165 3,900  Level Aus ATC (RADAR)
04:31AM -31.6693 116.6747 261° West 138 159 3,900  Level Aus ATC (RADAR)
04:31AM -31.6801 116.6435 248° West 138 159 3,900  Level Aus ATC (RADAR)
04:32AM -31.7197 116.6186 208° Southwest 146 168 4,000  Climbing Aus ATC (RADAR)
04:33AM -31.7483 116.5968 213° Southwest 149 171 4,000  Level Aus ATC (RADAR)
04:34AM -31.7726 116.5757 217° Southwest 144 166 4,000  Level Aus ATC (RADAR)
04:35AM -31.7951 116.5578 214° Southwest 145 167 4,000 -120 Level Aus ATC (RADAR)
04:36AM -31.8247 116.5365 211° Southwest 147 169 3,900 -60 Descending Aus ATC (RADAR)
04:36AM -31.8513 116.5136 216° Southwest 143 165 3,900 -360 Level Aus ATC (RADAR)
04:38AM -31.8911 116.4812 215° Southwest 138 159 3,200 -480 Descending Aus ATC (RADAR)
04:38AM -31.9169 116.4598 215° Southwest 134 154 3,000 -180 Descending Aus ATC (RADAR)
04:39AM -31.9356 116.4449 214° Southwest 137 158 3,000  Level Aus ATC (RADAR)
04:40AM -31.9542 116.4288 216° Southwest 141 162 3,000  Level Aus ATC (RADAR)
04:40AM -31.9798 116.4092 213° Southwest 147 169 3,000  Level Aus ATC (RADAR)
04:41AM -32.0138 116.3847 211° Southwest 141 162 3,000  Level Aus ATC (RADAR)
04:42AM -32.0455 116.3615 212° Southwest 141 162 3,000 -60 Level Aus ATC (RADAR)
04:43AM -32.0801 116.3346 213° Southwest 149 171 2,900  Descending Aus ATC (RADAR)
04:44AM -32.0987 116.3185 216° Southwest 143 165 3,000 60 Climbing Aus ATC (RADAR)
04:44AM -32.1152 116.3048 215° Southwest 142 163 3,000  Level Aus ATC (RADAR)
04:45AM -32.1294 116.2843 231° Southwest 142 163 3,000  Level Aus ATC (RADAR)
04:46AM -32.1328 116.2509 263° West 134 154 3,000  Level Aus ATC (RADAR)
04:46AM -32.1370 116.2247 259° West 134 154 3,000 -120 Level Aus ATC (RADAR)
04:47AM -32.1454 116.1911 254° West 140 161 2,900 -120 Descending Aus ATC (RADAR)
04:48AM -32.1487 116.1645 262° West 137 158 2,900  Level Aus ATC (RADAR)
04:48AM -32.1515 116.1344 264° West 135 155 2,900 -120 Level Aus ATC (RADAR)
04:49AM -32.1558 116.1073 259° West 139 160 2,800 -180 Descending Aus ATC (RADAR)
04:52AM -32.1597 115.9306 327° Northwest 1,300 -600 Descending Aus ATC (Calculated)
04:53AM -32.1312 115.9086 148° Southeast 400 -1,260 Descending Aus ATC (Calculated)
04:54AM -32.1457 115.9194 326° Northwest  Level Estimated
04:54AM -32.1143 115.8949 360° North 100  Level Aus ATC (Calculated)
04:54AM -32.1143 115.8949 325° Northwest 100  Level Aus ATC (Calculated)
04:56AM -32.0975 115.8811 325° Northwest  Level Estimated
04:57AM -32.0975 115.8811 90° East  Level Estimated
04:58AM -32.0975 115.8811 90° East  Level Estimated
04:59AM -32.0975 115.8811 90° East  Level Estimated
05:00AM -32.0975 115.8811 90° East  Level Estimated
05:01AM -32.0975 115.8811 90° East  Level Estimated